Woody Point, Canada
Current Conditions -  °F | °C
As of 1:49 AM on Sunday 23 Nov 2014 (Local Time) from CYDF Reporting Station
Light Snow Light Snow  
Wind Chill: 19°   Ceiling: 1100
Heat Index: 28°   Visibility: 2.5mi
Dew Point: 25°   Wind: 10mph
Humidity: 86%   Direction: 230°SW
Pressure: 29.58"   Gusts: NA
Location:  49.5°N, 57.93°W
Report Text: CYDF 230449Z 23009KT 210V270 2 1/2SM -SN BKN011 OVC022 M02/M04 A2958 RMK SC5SC3 SLP019
Loading
Personal Weather Stations






























Interactive Weather Map New forecast layout! Learn more

10-Day Weather Forecast

Advertisements
Track Severe Weather on mobile